createdAt,value
2022-10-17T00:01:40.860Z,98756.47
2022-10-17T00:04:44.086Z,98748.34
2022-10-17T00:07:48.559Z,98754.78
2022-10-17T00:10:59.590Z,98760.88
2022-10-17T00:14:03.876Z,98758.91
2022-10-17T00:17:07.173Z,98767.91
2022-10-17T00:20:11.398Z,98754.84
2022-10-17T00:23:15.894Z,98715.72
2022-10-17T00:26:19.453Z,98760.03
2022-10-17T00:29:22.571Z,98760.25
2022-10-17T00:32:25.892Z,98763.19
2022-10-17T00:35:29.110Z,98766.44
2022-10-17T00:38:33.718Z,98766.00
2022-10-17T00:41:36.831Z,98766.94
2022-10-17T00:45:03.659Z,98767.91
2022-10-17T00:48:10.672Z,98761.66
2022-10-17T00:51:13.787Z,98763.16
2022-10-17T00:54:22.107Z,98758.66
2022-10-17T00:57:27.069Z,98684.00
2022-10-17T01:00:30.575Z,98755.78
2022-10-17T01:03:34.989Z,98763.00
2022-10-17T01:06:38.098Z,98761.94
2022-10-17T01:09:46.087Z,98758.19
2022-10-17T01:13:01.455Z,98770.91
2022-10-17T01:16:12.631Z,98773.81
2022-10-17T01:19:57.552Z,98766.56
2022-10-17T01:23:19.228Z,98757.44
2022-10-17T01:26:34.807Z,98761.72
2022-10-17T01:29:55.195Z,98765.16
2022-10-17T01:33:07.610Z,98769.94
2022-10-17T01:36:16.448Z,98751.13
2022-10-17T01:39:32.530Z,98773.41
2022-10-17T01:42:43.551Z,98771.09
2022-10-17T01:45:51.149Z,98767.59
2022-10-17T01:48:59.102Z,98727.22
2022-10-17T01:52:05.034Z,98760.88
2022-10-17T01:55:11.429Z,98761.81
2022-10-17T01:58:20.249Z,98716.41
2022-10-17T02:01:25.374Z,98753.47
2022-10-17T02:04:30.586Z,98758.97
2022-10-17T02:07:33.814Z,98759.38
2022-10-17T02:10:43.305Z,98732.59
2022-10-17T02:14:20.536Z,98728.59
2022-10-17T02:17:35.768Z,98752.25
2022-10-17T02:20:50.562Z,98740.66
2022-10-17T02:23:57.375Z,98760.34
2022-10-17T02:27:07.681Z,98754.97
2022-10-17T02:30:15.603Z,98759.69
2022-10-17T02:33:24.402Z,98758.69
2022-10-17T02:36:33.900Z,98765.53
2022-10-17T02:39:39.883Z,98755.88
2022-10-17T02:42:45.907Z,98756.25
2022-10-17T02:45:49.902Z,98754.06
2022-10-17T02:48:56.029Z,98754.00
2022-10-17T02:52:05.411Z,98753.91
2022-10-17T02:55:14.598Z,98734.63
2022-10-17T02:58:20.820Z,98758.84
2022-10-17T03:01:25.218Z,98763.59
2022-10-17T03:04:29.066Z,98765.53
2022-10-17T03:07:33.612Z,98747.47
2022-10-17T03:10:37.132Z,98774.03
2022-10-17T03:13:40.542Z,98770.47
2022-10-17T03:16:44.096Z,98763.19
2022-10-17T03:19:47.247Z,98771.88
2022-10-17T03:22:52.525Z,98776.34
2022-10-17T03:25:55.671Z,98777.16
2022-10-17T03:28:59.064Z,98788.97
2022-10-17T03:34:28.495Z,98785.31
2022-10-17T03:37:31.799Z,98797.75
2022-10-17T03:40:35.894Z,98799.97
2022-10-17T03:43:40.833Z,98794.66
2022-10-17T03:46:44.863Z,98795.31
2022-10-17T03:49:49.490Z,98806.06
2022-10-17T03:52:52.925Z,98802.78
2022-10-17T03:55:56.842Z,98791.88
2022-10-17T03:59:00.277Z,98812.63
2022-10-17T04:02:05.233Z,98811.44
2022-10-17T04:05:10.657Z,98807.19
2022-10-17T04:08:14.027Z,98815.47
2022-10-17T04:11:39.199Z,98815.75
2022-10-17T04:14:42.357Z,98819.72
2022-10-17T04:17:48.429Z,98816.63
2022-10-17T04:20:53.170Z,98825.81
2022-10-17T04:23:57.792Z,98799.75
2022-10-17T04:27:18.942Z,98803.63
2022-10-17T04:30:24.282Z,98816.16
2022-10-17T04:33:30.010Z,98827.34
2022-10-17T04:36:34.766Z,98830.63
2022-10-17T04:39:38.611Z,98831.47
2022-10-17T04:42:41.807Z,98818.16
2022-10-17T04:45:47.116Z,98834.44
2022-10-17T04:48:50.983Z,98833.75
2022-10-17T04:51:55.666Z,98837.38
2022-10-17T04:55:13.940Z,98827.19
2022-10-17T04:58:17.147Z,98836.25
2022-10-17T05:01:22.319Z,98828.06
2022-10-17T05:04:29.163Z,98827.09
2022-10-17T05:07:33.784Z,98826.50
2022-10-17T05:10:46.678Z,98834.44
2022-10-17T05:13:55.426Z,98834.94
2022-10-17T05:16:58.725Z,98828.78
2022-10-17T05:20:02.380Z,98836.69
2022-10-17T05:23:08.910Z,98836.97
2022-10-17T05:26:16.828Z,98843.72
2022-10-17T05:29:20.266Z,98842.03
2022-10-17T05:32:29.121Z,98845.53
2022-10-17T05:35:32.472Z,98846.91
2022-10-17T05:38:37.308Z,98850.22
2022-10-17T05:41:41.593Z,98850.59
2022-10-17T05:44:46.960Z,98848.22
2022-10-17T05:47:52.132Z,98848.34
2022-10-17T05:51:00.453Z,98849.59
2022-10-17T05:54:06.577Z,98859.09
2022-10-17T05:57:11.676Z,98861.50
2022-10-17T06:00:16.329Z,98864.69
2022-10-17T06:03:21.042Z,98851.00
2022-10-17T06:06:24.498Z,98872.22
2022-10-17T06:09:29.523Z,98871.25
2022-10-17T06:12:32.949Z,98880.78
2022-10-17T06:15:36.584Z,98883.94
2022-10-17T06:18:43.525Z,98873.63
2022-10-17T06:21:47.656Z,98893.91
2022-10-17T06:24:58.580Z,98892.41
2022-10-17T06:28:02.291Z,98897.28
2022-10-17T06:31:07.316Z,98876.84
2022-10-17T06:34:10.468Z,98905.09
2022-10-17T06:37:15.263Z,98899.31
2022-10-17T06:40:21.284Z,98899.94
2022-10-17T06:43:27.857Z,98912.41
2022-10-17T06:46:51.168Z,98922.56
2022-10-17T06:49:54.742Z,98923.31
2022-10-17T06:53:21.776Z,98923.13
2022-10-17T06:56:49.332Z,98932.16
2022-10-17T06:59:58.614Z,98930.34
2022-10-17T07:03:08.382Z,98927.53
2022-10-17T07:06:11.817Z,98941.81
2022-10-17T07:09:17.067Z,98933.69
2022-10-17T07:12:22.403Z,98942.91
2022-10-17T07:15:27.794Z,98943.22
2022-10-17T07:18:30.958Z,98951.03
2022-10-17T07:21:36.696Z,98944.56
2022-10-17T07:24:43.175Z,98944.38
2022-10-17T07:28:06.114Z,98942.28
2022-10-17T07:31:13.888Z,98926.31
2022-10-17T07:34:17.792Z,98914.16
2022-10-17T07:37:21.496Z,98899.28
2022-10-17T07:40:29.749Z,98894.44
2022-10-17T07:43:36.152Z,98907.22
2022-10-17T07:46:39.713Z,98904.34
2022-10-17T07:49:44.167Z,98888.25
2022-10-17T07:52:47.423Z,98908.78
2022-10-17T07:55:51.371Z,98905.84
2022-10-17T08:02:08.039Z,98906.78
2022-10-17T08:05:11.198Z,98913.22
2022-10-17T08:08:14.345Z,98915.19
2022-10-17T08:11:17.495Z,98914.94
2022-10-17T08:14:21.954Z,98905.66
2022-10-17T08:17:25.158Z,98903.81
2022-10-17T08:20:29.792Z,98908.41
2022-10-17T08:23:33.256Z,98890.91
2022-10-17T08:26:40.643Z,98884.75
2022-10-17T08:29:48.776Z,98902.88
2022-10-17T08:32:51.933Z,98893.56
2022-10-17T08:35:55.007Z,98888.63
2022-10-17T08:38:58.335Z,98888.63
2022-10-17T08:42:20.654Z,98888.72
2022-10-17T08:45:33.744Z,98887.69
2022-10-17T08:48:44.079Z,98891.78
2022-10-17T08:51:56.587Z,98899.44
2022-10-17T08:54:59.831Z,98894.28
2022-10-17T08:58:03.015Z,98888.31
2022-10-17T09:01:18.610Z,98858.94
2022-10-17T09:05:01.573Z,98877.47
2022-10-17T09:08:15.572Z,98870.50
2022-10-17T09:11:38.605Z,98827.47
2022-10-17T09:15:17.388Z,98874.94
2022-10-17T09:18:27.726Z,98875.97
2022-10-17T09:21:41.156Z,98871.75
2022-10-17T09:24:47.583Z,98856.25
2022-10-17T09:27:54.933Z,98867.69
2022-10-17T09:34:32.499Z,98864.72
2022-10-17T09:37:35.722Z,98873.19
2022-10-17T09:40:38.952Z,98875.53
2022-10-17T09:43:42.150Z,98859.06
2022-10-17T09:46:58.037Z,98859.97
2022-10-17T09:50:02.653Z,98859.78
2022-10-17T09:53:14.850Z,98865.41
2022-10-17T09:56:20.316Z,98856.41
2022-10-17T09:59:33.148Z,98856.63
2022-10-17T10:02:36.627Z,98839.72
2022-10-17T10:05:41.454Z,98859.31
2022-10-17T10:08:55.413Z,98855.31
2022-10-17T10:12:00.361Z,98840.09
2022-10-17T10:15:23.902Z,98844.06
2022-10-17T10:18:35.090Z,98847.25
2022-10-17T10:21:57.049Z,98853.69
2022-10-17T10:25:16.249Z,98852.47
2022-10-17T10:28:19.813Z,98844.97
2022-10-17T10:31:35.299Z,98842.91
2022-10-17T10:34:42.327Z,98835.16
2022-10-17T10:37:51.886Z,98838.28
2022-10-17T10:40:57.413Z,98819.72
2022-10-17T10:44:00.623Z,98837.78
2022-10-17T10:47:09.125Z,98815.34
2022-10-17T10:50:25.769Z,98801.78
2022-10-17T10:53:45.337Z,98826.59
2022-10-17T10:56:53.767Z,98828.22
2022-10-17T11:00:03.690Z,98818.97
2022-10-17T11:03:20.425Z,98808.50
2022-10-17T11:06:28.827Z,98825.50
2022-10-17T11:09:46.551Z,98821.63
2022-10-17T11:12:52.574Z,98797.19
2022-10-17T11:16:02.276Z,98816.22
2022-10-17T11:19:13.970Z,98811.97
2022-10-17T11:22:24.066Z,98800.94
2022-10-17T11:25:35.556Z,98816.28
2022-10-17T11:28:39.207Z,98797.13
2022-10-17T11:31:46.378Z,98805.34
2022-10-17T11:34:52.528Z,98811.19
2022-10-17T11:38:07.158Z,98791.63
2022-10-17T11:41:15.174Z,98806.59
2022-10-17T11:44:25.837Z,98806.66
2022-10-17T11:47:37.833Z,98805.75
2022-10-17T11:54:15.212Z,98800.50
2022-10-17T11:57:37.336Z,98790.03
2022-10-17T12:00:54.105Z,98802.47
2022-10-17T12:04:08.991Z,98809.53
2022-10-17T12:07:19.444Z,98808.47
2022-10-17T12:10:35.181Z,98792.91
2022-10-17T12:13:51.927Z,98803.84
2022-10-17T12:16:55.160Z,98801.63
2022-10-17T12:20:39.759Z,98795.53
2022-10-17T12:23:53.115Z,98802.53
2022-10-17T12:26:57.212Z,98799.19
2022-10-17T12:30:05.382Z,98802.59
2022-10-17T12:33:22.290Z,98797.31
2022-10-17T12:36:49.987Z,98794.75
2022-10-17T12:39:53.103Z,98771.41
2022-10-17T12:42:56.271Z,98792.28
2022-10-17T12:46:02.140Z,98783.38
2022-10-17T12:49:20.608Z,98773.13
2022-10-17T12:52:46.246Z,98777.91
2022-10-17T12:55:51.840Z,98777.22
2022-10-17T12:58:55.025Z,98764.84
2022-10-17T13:02:02.932Z,98771.38
2022-10-17T13:05:12.283Z,98760.47
2022-10-17T13:08:19.807Z,98761.91
2022-10-17T13:11:26.301Z,98759.78
2022-10-17T13:14:30.699Z,98756.88
2022-10-17T13:17:37.990Z,98760.25
2022-10-17T13:20:43.774Z,98755.53
2022-10-17T13:23:49.265Z,98762.47
2022-10-17T13:26:52.348Z,98759.56
2022-10-17T13:29:57.349Z,98763.16
2022-10-17T13:33:02.996Z,98775.03
2022-10-17T13:36:16.127Z,98781.81
2022-10-17T13:39:52.394Z,98773.38
2022-10-17T13:42:56.927Z,98787.84
2022-10-17T13:46:25.444Z,98792.34
2022-10-17T13:49:44.428Z,98759.66
2022-10-17T13:53:06.182Z,98755.66
2022-10-17T13:56:28.328Z,98785.00
2022-10-17T13:59:41.362Z,98788.09
2022-10-17T14:02:46.889Z,98785.28
2022-10-17T14:06:12.152Z,98786.94
2022-10-17T14:09:23.400Z,98796.41
2022-10-17T14:12:29.572Z,98800.16
2022-10-17T14:15:37.146Z,98804.06
2022-10-17T14:18:44.718Z,98788.53
2022-10-17T14:21:53.871Z,98800.00
2022-10-17T14:25:02.182Z,98803.41
2022-10-17T14:28:20.915Z,98810.50
2022-10-17T14:31:37.891Z,98814.59
2022-10-17T14:34:46.101Z,98811.47
2022-10-17T14:37:53.059Z,98804.03
2022-10-17T14:41:09.746Z,98820.34
2022-10-17T14:44:26.695Z,98826.03
2022-10-17T14:47:42.675Z,98808.56
2022-10-17T14:51:12.948Z,98824.41
2022-10-17T14:54:24.760Z,98830.84
2022-10-17T14:57:43.815Z,98831.31
2022-10-17T15:00:46.928Z,98833.81
2022-10-17T15:03:50.108Z,98827.84
2022-10-17T15:06:55.461Z,98835.28
2022-10-17T15:10:00.178Z,98828.56
2022-10-17T15:13:26.723Z,98836.25
2022-10-17T15:16:32.609Z,98830.56
2022-10-17T15:19:35.687Z,98846.59
2022-10-17T15:22:38.775Z,98838.63
2022-10-17T15:25:43.373Z,98847.66
2022-10-17T15:28:47.586Z,98846.94
2022-10-17T15:34:28.885Z,98839.97
2022-10-17T15:37:35.076Z,98849.00
2022-10-17T15:40:38.194Z,98844.44
2022-10-17T15:43:41.309Z,98840.66
2022-10-17T15:46:45.936Z,98851.22
2022-10-17T15:49:50.422Z,98848.41
2022-10-17T15:52:53.684Z,98831.13
2022-10-17T15:55:56.881Z,98859.69
2022-10-17T15:59:00.093Z,98841.25
2022-10-17T16:02:03.164Z,98877.84
2022-10-17T16:05:14.834Z,98881.16
2022-10-17T16:08:17.967Z,98875.84
2022-10-17T16:11:28.853Z,98891.31
2022-10-17T16:14:32.423Z,98895.69
2022-10-17T16:17:35.593Z,98904.50
2022-10-17T16:20:40.490Z,98915.41
2022-10-17T16:23:44.195Z,98919.75
2022-10-17T16:26:47.558Z,98931.66
2022-10-17T16:29:50.705Z,98926.69
2022-10-17T16:32:54.722Z,98936.25
2022-10-17T16:35:59.196Z,98922.00
2022-10-17T16:39:02.474Z,98953.16
2022-10-17T16:42:05.694Z,98959.34
2022-10-17T16:45:09.699Z,98951.75
2022-10-17T16:48:13.255Z,98967.88
2022-10-17T16:51:19.160Z,98958.50
2022-10-17T16:54:22.322Z,98960.09
2022-10-17T16:57:25.560Z,98966.75
2022-10-17T17:00:28.832Z,98952.16
2022-10-17T17:03:32.032Z,98963.44
2022-10-17T17:06:37.977Z,98970.78
2022-10-17T17:09:41.172Z,98976.06
2022-10-17T17:12:44.333Z,98969.28
2022-10-17T17:15:47.766Z,98969.66
2022-10-17T17:18:55.222Z,98978.88
2022-10-17T17:21:59.838Z,98982.66
2022-10-17T17:25:03.016Z,98973.66
2022-10-17T17:28:06.941Z,98979.69
2022-10-17T17:31:12.225Z,98985.59
2022-10-17T17:34:18.070Z,98987.84
2022-10-17T17:37:23.446Z,98992.47
2022-10-17T17:40:26.767Z,99002.00
2022-10-17T17:43:31.118Z,98994.00
2022-10-17T17:46:34.884Z,98995.19
2022-10-17T17:49:38.122Z,99008.13
2022-10-17T17:52:45.513Z,99011.16
2022-10-17T17:55:48.815Z,99015.03
2022-10-17T17:58:55.381Z,98998.03
2022-10-17T18:01:58.872Z,99021.16
2022-10-17T18:05:02.123Z,99031.41
2022-10-17T18:08:07.377Z,99035.13
2022-10-17T18:11:10.714Z,99034.09
2022-10-17T18:14:14.198Z,99041.66
2022-10-17T18:17:17.346Z,99020.84
2022-10-17T18:20:20.485Z,99057.34
2022-10-17T18:23:25.016Z,99056.50
2022-10-17T18:26:28.495Z,99063.69
2022-10-17T18:29:32.746Z,99071.06
2022-10-17T18:32:36.347Z,99060.09
2022-10-17T18:35:39.450Z,99067.03
2022-10-17T18:38:44.499Z,99080.91
2022-10-17T18:41:48.225Z,99074.09
2022-10-17T18:44:51.410Z,99078.94
2022-10-17T18:47:54.698Z,99059.63
2022-10-17T18:50:57.820Z,99053.03
2022-10-17T18:54:03.521Z,99064.31
2022-10-17T18:57:07.158Z,99063.28
2022-10-17T19:00:11.751Z,99066.66
2022-10-17T19:03:15.216Z,99069.25
2022-10-17T19:06:20.413Z,99051.41
2022-10-17T19:09:25.075Z,99080.16
2022-10-17T19:12:28.847Z,99075.16
2022-10-17T19:15:32.358Z,99081.00
2022-10-17T19:18:36.385Z,99074.06
2022-10-17T19:21:39.794Z,99082.34
2022-10-17T19:24:44.391Z,99083.72
2022-10-17T19:27:47.655Z,99084.94
2022-10-17T19:30:51.214Z,99069.22
2022-10-17T19:33:55.667Z,99071.66
2022-10-17T19:36:58.983Z,99058.94
2022-10-17T19:40:04.010Z,99072.19
2022-10-17T19:43:07.190Z,99092.19
2022-10-17T19:46:12.806Z,99091.09
2022-10-17T19:49:17.703Z,99089.81
2022-10-17T19:52:20.848Z,99094.59
2022-10-17T19:55:25.424Z,99093.78
2022-10-17T19:58:29.495Z,99087.72
2022-10-17T20:01:35.016Z,99093.19
2022-10-17T20:04:49.502Z,99079.31
2022-10-17T20:08:01.314Z,99098.31
2022-10-17T20:11:08.007Z,99095.69
2022-10-17T20:14:11.172Z,99108.63
2022-10-17T20:17:14.334Z,99103.03
2022-10-17T20:20:17.781Z,99125.09
2022-10-17T20:23:21.004Z,99103.78
2022-10-17T20:26:37.783Z,99104.88
2022-10-17T20:29:42.084Z,99126.28
2022-10-17T20:32:45.229Z,99126.13
2022-10-17T20:35:48.429Z,99130.78
2022-10-17T20:38:54.309Z,99133.41
2022-10-17T20:41:59.396Z,99117.97
2022-10-17T20:45:03.014Z,99131.47
2022-10-17T20:48:07.302Z,99129.97
2022-10-17T20:51:11.664Z,99136.09
2022-10-17T20:54:15.003Z,99126.66
2022-10-17T20:57:19.687Z,99131.38
2022-10-17T21:00:23.426Z,99131.66
2022-10-17T21:03:26.678Z,99131.38
2022-10-17T21:06:29.775Z,99132.41
2022-10-17T21:09:33.116Z,99135.59
2022-10-17T21:12:53.381Z,99131.53
2022-10-17T21:16:04.608Z,99132.03
2022-10-17T21:19:07.911Z,99106.25
2022-10-17T21:22:11.126Z,99124.16
2022-10-17T21:25:14.539Z,99121.22
2022-10-17T21:28:19.024Z,99131.78
2022-10-17T21:34:28.769Z,99138.56
2022-10-17T21:37:32.096Z,99139.47
2022-10-17T21:40:35.986Z,99137.97
2022-10-17T21:43:39.830Z,99135.16
2022-10-17T21:46:43.422Z,99127.69
2022-10-17T21:49:48.132Z,99126.34
2022-10-17T21:52:51.317Z,99111.09
2022-10-17T21:55:54.752Z,99119.69
2022-10-17T21:58:59.532Z,99119.47
2022-10-17T22:02:02.996Z,99120.75
2022-10-17T22:05:08.227Z,99115.53
2022-10-17T22:08:11.384Z,99117.63
2022-10-17T22:11:17.837Z,99126.91
2022-10-17T22:14:22.948Z,99121.50
2022-10-17T22:17:26.161Z,99114.25
2022-10-17T22:20:31.050Z,99113.97
2022-10-17T22:23:35.872Z,99127.19
2022-10-17T22:26:39.328Z,99100.81
2022-10-17T22:29:42.593Z,99122.25
2022-10-17T22:32:45.989Z,99125.22
2022-10-17T22:35:50.915Z,99109.44
2022-10-17T22:38:54.174Z,99133.72
2022-10-17T22:41:57.674Z,99112.09
2022-10-17T22:45:01.227Z,99106.44
2022-10-17T22:48:05.817Z,99124.25
2022-10-17T22:51:10.429Z,99086.06
2022-10-17T22:54:13.900Z,99102.50
2022-10-17T22:57:17.096Z,99116.66
2022-10-17T23:00:20.670Z,99114.97
2022-10-17T23:03:25.228Z,99119.44
2022-10-17T23:06:30.112Z,99091.28
2022-10-17T23:09:33.600Z,99093.50
2022-10-17T23:12:36.879Z,99103.16
2022-10-17T23:15:40.271Z,99098.34
2022-10-17T23:18:44.335Z,99097.50
2022-10-17T23:21:48.895Z,99086.50
2022-10-17T23:24:52.270Z,99065.22
2022-10-17T23:27:56.331Z,99091.72
2022-10-17T23:30:59.422Z,99092.69
2022-10-17T23:34:02.640Z,99085.16
2022-10-17T23:37:07.386Z,99094.47
2022-10-17T23:40:12.150Z,99095.63
2022-10-17T23:43:15.499Z,99097.44
2022-10-17T23:46:19.282Z,99091.19
2022-10-17T23:49:22.384Z,99101.28
2022-10-17T23:52:27.105Z,99098.75
2022-10-17T23:55:30.295Z,99080.03
2022-10-17T23:58:33.771Z,99094.69
